Time;durP1;ratioP1;P1;durP2;ratioP2;P2;SDS_P1;SDS_P2;PMS_P1;PMS_P2;Temp;Humidity;BMP_temperature;BMP_pressure;BME280_temperature;BME280_humidity;BME280_pressure;Samples;Min_cycle;Max_cycle;Signal;HPM_P1;HPM_P2
2021/12/11 00:00:44;;;;;;;;;;;3.80;92.80;;;;;;4981296;28;20728;-75
2021/12/11 00:03:18;;;;;;;;;;;3.90;93.00;;;;;;4984645;28;19945;-75
2021/12/11 00:05:49;;;;;;;;;;;3.90;93.00;;;;;;4982070;28;20373;-74
2021/12/11 00:08:19;;;;;;;;;;;4.00;93.00;;;;;;4988091;28;19927;-75
2021/12/11 00:10:53;;;;;;;;;;;4.00;93.00;;;;;;4990351;28;20412;-75
2021/12/11 00:13:24;;;;;;;;;;;3.90;92.90;;;;;;4976390;28;20410;-76
2021/12/11 00:15:52;;;;;;;;;;;4.00;92.90;;;;;;4977228;28;19926;-75
2021/12/11 00:18:21;;;;;;;;;;;4.00;92.80;;;;;;4974821;28;19941;-76
2021/12/11 00:20:51;;;;;;;;;;;4.00;92.80;;;;;;4990419;28;19933;-73
2021/12/11 00:23:21;;;;;;;;;;;4.00;92.80;;;;;;4988043;28;20426;-75
2021/12/11 00:25:48;;;;;;;;;;;3.90;92.60;;;;;;4974903;28;19926;-74
2021/12/11 00:28:16;;;;;;;;;;;3.90;92.70;;;;;;4976124;28;19930;-73
2021/12/11 00:30:44;;;;;;;;;;;3.80;92.80;;;;;;4976006;28;19930;-74
2021/12/11 00:33:14;;;;;;;;;;;3.80;92.90;;;;;;4992289;28;19937;-74
2021/12/11 00:35:42;;;;;;;;;;;3.80;92.90;;;;;;4995390;28;19929;-74
2021/12/11 00:38:17;;;;;;;;;;;3.80;92.90;;;;;;4989353;28;20296;-73
2021/12/11 00:40:45;;;;;;;;;;;3.80;92.80;;;;;;4980953;28;19925;-74
2021/12/11 00:43:17;;;;;;;;;;;3.80;92.90;;;;;;4995099;28;20774;-73
2021/12/11 00:45:46;;;;;;;;;;;3.80;93.00;;;;;;4984296;28;20392;-73
2021/12/11 00:48:18;;;;;;;;;;;3.70;92.90;;;;;;4975696;28;19930;-73
2021/12/11 00:50:54;;;;;;;;;;;3.70;92.90;;;;;;4975714;28;19926;-74
2021/12/11 00:53:24;;;;;;;;;;;3.60;93.00;;;;;;4974749;28;19926;-73
2021/12/11 00:55:53;;;;;;;;;;;3.70;93.10;;;;;;4975668;28;19926;-73
2021/12/11 00:58:22;;;;;;;;;;;3.70;93.20;;;;;;4982759;28;19933;-74
2021/12/11 01:00:53;;;;;;;;;;;3.70;93.20;;;;;;4974999;28;20410;-73
2021/12/11 01:03:32;;;;;;;;;;;3.70;93.20;;;;;;4974913;28;19945;-73
2021/12/11 01:06:01;;;;;;;;;;;3.70;93.20;;;;;;4958124;28;19926;-74
2021/12/11 01:08:32;;;;;;;;;;;3.60;93.10;;;;;;4974474;28;20384;-73
2021/12/11 01:11:14;;;;;;;;;;;3.60;93.00;;;;;;4975259;28;19949;-74
2021/12/11 01:13:44;;;;;;;;;;;3.50;93.00;;;;;;4975234;28;19930;-73
2021/12/11 01:16:14;;;;;;;;;;;3.50;93.10;;;;;;4975342;28;19930;-73
2021/12/11 01:18:44;;;;;;;;;;;3.40;93.10;;;;;;4975544;28;20008;-74
2021/12/11 01:26:30;;;;;;;;;;;3.30;93.30;;;;;;4975263;28;19933;-73
2021/12/11 01:28:58;;;;;;;;;;;3.30;93.40;;;;;;4957576;28;20311;-73
2021/12/11 01:31:27;;;;;;;;;;;3.20;93.40;;;;;;4976505;28;19930;-74
2021/12/11 01:33:55;;;;;;;;;;;3.30;93.50;;;;;;4993785;28;20436;-74
2021/12/11 01:36:23;;;;;;;;;;;3.20;93.50;;;;;;4976311;28;19926;-73
2021/12/11 01:38:58;;;;;;;;;;;3.30;93.50;;;;;;4976931;28;19926;-73
2021/12/11 01:41:25;;;;;;;;;;;3.30;93.50;;;;;;4994096;28;20292;-73
2021/12/11 01:43:54;;;;;;;;;;;3.20;93.40;;;;;;4993141;28;19948;-73
2021/12/11 01:46:23;;;;;;;;;;;3.20;93.50;;;;;;4975738;28;19926;-74
2021/12/11 01:48:53;;;;;;;;;;;3.30;93.70;;;;;;4975777;28;20411;-71
2021/12/11 01:51:23;;;;;;;;;;;3.30;93.70;;;;;;4991096;28;20276;-72
2021/12/11 01:54:17;;;;;;;;;;;3.40;93.60;;;;;;4994986;28;19933;-71
2021/12/11 01:56:48;;;;;;;;;;;3.50;93.60;;;;;;4975202;28;19930;-73
2021/12/11 01:59:18;;;;;;;;;;;3.60;93.60;;;;;;4986979;28;19929;-73
2021/12/11 02:01:52;;;;;;;;;;;3.70;93.50;;;;;;4978222;28;19926;-75
2021/12/11 02:04:21;;;;;;;;;;;3.70;93.40;;;;;;4957118;28;19926;-74
2021/12/11 02:06:50;;;;;;;;;;;3.80;93.30;;;;;;4974727;28;19949;-75
2021/12/11 02:09:20;;;;;;;;;;;3.80;93.30;;;;;;4987664;28;20299;-75
2021/12/11 02:11:50;;;;;;;;;;;3.80;93.20;;;;;;4976736;28;19926;-75
2021/12/11 02:14:24;;;;;;;;;;;3.90;93.10;;;;;;4992976;28;19933;-75
2021/12/11 02:16:53;;;;;;;;;;;4.00;92.90;;;;;;4994742;28;20299;-75
2021/12/11 02:19:29;;;;;;;;;;;4.00;92.70;;;;;;4993247;28;19933;-73
2021/12/11 02:22:16;;;;;;;;;;;4.00;92.60;;;;;;4993889;28;19926;-74
2021/12/11 02:24:49;;;;;;;;;;;4.00;92.50;;;;;;4994513;28;19933;-75
2021/12/11 02:27:24;;;;;;;;;;;4.00;92.40;;;;;;4994259;28;20314;-75
2021/12/11 02:30:09;;;;;;;;;;;4.00;92.40;;;;;;4977151;28;19926;-74
2021/12/11 02:32:42;;;;;;;;;;;4.00;92.30;;;;;;4994376;28;19926;-73
2021/12/11 02:35:17;;;;;;;;;;;4.00;92.30;;;;;;4991919;28;20009;-73
2021/12/11 02:37:57;;;;;;;;;;;4.00;92.20;;;;;;4985733;28;19929;-73
2021/12/11 02:40:28;;;;;;;;;;;4.00;92.10;;;;;;4974925;28;19926;-73
2021/12/11 02:42:58;;;;;;;;;;;4.00;92.20;;;;;;4989142;28;19930;-73
2021/12/11 02:45:31;;;;;;;;;;;4.00;92.20;;;;;;4974680;28;19937;-74
2021/12/11 02:48:01;;;;;;;;;;;3.90;92.20;;;;;;4974819;28;19926;-74
2021/12/11 02:50:34;;;;;;;;;;;3.90;92.30;;;;;;4974686;28;19926;-74
2021/12/11 02:53:07;;;;;;;;;;;3.90;92.40;;;;;;4974779;28;19926;-74
2021/12/11 02:55:40;;;;;;;;;;;3.90;92.50;;;;;;4957095;28;20395;-73
2021/12/11 02:58:24;;;;;;;;;;;4.00;92.50;;;;;;4974669;28;19933;-73
2021/12/11 03:01:00;;;;;;;;;;;4.00;92.50;;;;;;4957403;28;19926;-73
2021/12/11 03:03:33;;;;;;;;;;;4.00;92.50;;;;;;4973932;28;19930;-74
2021/12/11 03:06:07;;;;;;;;;;;4.10;92.50;;;;;;4989437;28;19934;-74
2021/12/11 03:08:35;;;;;;;;;;;4.20;92.50;;;;;;4981084;28;20375;-73
2021/12/11 03:11:07;;;;;;;;;;;4.30;92.50;;;;;;4993315;28;19933;-73
2021/12/11 03:13:38;;;;;;;;;;;4.20;92.50;;;;;;4993752;28;19933;-75
2021/12/11 03:16:06;;;;;;;;;;;4.30;92.50;;;;;;4993759;28;19926;-73
2021/12/11 03:18:34;;;;;;;;;;;4.30;92.50;;;;;;4993601;28;19948;-73
2021/12/11 03:21:02;;;;;;;;;;;4.30;92.40;;;;;;4993399;28;19926;-73
2021/12/11 03:23:30;;;;;;;;;;;4.30;92.50;;;;;;4993521;28;19948;-74
2021/12/11 03:25:57;;;;;;;;;;;4.40;92.40;;;;;;4992809;28;19932;-74
2021/12/11 03:28:25;;;;;;;;;;;4.40;92.40;;;;;;4992915;28;20302;-73
2021/12/11 03:30:57;;;;;;;;;;;4.50;92.30;;;;;;4993555;28;19926;-74
2021/12/11 03:33:34;;;;;;;;;;;4.50;92.30;;;;;;4993485;28;19932;-73
2021/12/11 03:36:02;;;;;;;;;;;4.60;92.40;;;;;;4993385;28;19925;-73
2021/12/11 03:38:30;;;;;;;;;;;4.60;92.40;;;;;;4993360;28;19926;-73
2021/12/11 03:40:58;;;;;;;;;;;4.70;92.40;;;;;;4992727;28;19951;-73
2021/12/11 03:43:26;;;;;;;;;;;4.70;92.30;;;;;;4985430;28;19926;-73
2021/12/11 03:45:56;;;;;;;;;;;4.60;92.10;;;;;;4973973;28;20025;-73
2021/12/11 03:48:26;;;;;;;;;;;4.60;92.00;;;;;;4956812;28;20307;-73
2021/12/11 03:50:53;;;;;;;;;;;4.60;91.70;;;;;;4956237;28;19927;-74
2021/12/11 03:53:21;;;;;;;;;;;4.50;91.60;;;;;;4973219;28;20407;-75
2021/12/11 03:55:50;;;;;;;;;;;4.50;91.40;;;;;;4956292;28;19926;-74
2021/12/11 03:58:18;;;;;;;;;;;4.50;91.40;;;;;;4972831;28;20399;-74
2021/12/11 04:00:51;;;;;;;;;;;4.40;91.40;;;;;;4973781;28;19926;-74
2021/12/11 04:03:20;;;;;;;;;;;4.30;91.40;;;;;;4973717;28;19933;-73
2021/12/11 04:05:49;;;;;;;;;;;4.30;91.30;;;;;;4973774;28;19930;-74
2021/12/11 04:08:21;;;;;;;;;;;4.20;91.40;;;;;;4977948;28;19930;-73
2021/12/11 04:10:49;;;;;;;;;;;4.20;91.50;;;;;;4975693;28;19933;-74
2021/12/11 04:13:17;;;;;;;;;;;4.10;91.60;;;;;;4993184;28;19930;-73
2021/12/11 04:15:46;;;;;;;;;;;4.00;91.60;;;;;;4992669;28;19933;-73
2021/12/11 04:18:14;;;;;;;;;;;4.00;91.70;;;;;;4991977;28;20494;-73
2021/12/11 04:20:43;;;;;;;;;;;4.00;91.60;;;;;;4992342;28;19933;-74
2021/12/11 04:23:11;;;;;;;;;;;4.00;91.50;;;;;;4975565;28;19925;-74
2021/12/11 04:25:40;;;;;;;;;;;4.00;91.40;;;;;;4992876;28;19949;-73
2021/12/11 04:28:08;;;;;;;;;;;4.00;91.30;;;;;;4993009;28;19933;-73
2021/12/11 04:30:37;;;;;;;;;;;4.00;91.20;;;;;;4992875;28;19949;-74
2021/12/11 04:33:04;;;;;;;;;;;3.90;91.10;;;;;;4975724;28;19926;-73
2021/12/11 04:35:32;;;;;;;;;;;4.00;91.00;;;;;;4955537;28;19926;-74
2021/12/11 04:38:01;;;;;;;;;;;4.00;90.80;;;;;;4975886;28;19926;-73
2021/12/11 04:40:32;;;;;;;;;;;4.00;90.30;;;;;;4976500;28;19935;-74
2021/12/11 04:43:09;;;;;;;;;;;4.10;90.20;;;;;;4977155;28;19926;-74
2021/12/11 04:45:42;;;;;;;;;;;4.20;90.00;;;;;;4976988;28;19938;-73
2021/12/11 04:48:19;;;;;;;;;;;4.20;89.80;;;;;;4979868;28;20411;-74
2021/12/11 04:50:56;;;;;;;;;;;4.20;89.60;;;;;;4991313;28;19932;-74
2021/12/11 04:53:41;;;;;;;;;;;4.20;89.40;;;;;;4978780;28;20391;-74
2021/12/11 05:04:50;;;;;;;;;;;4.30;89.50;;;;;;4996180;28;19933;-74
2021/12/11 05:07:06;;;;;;;;;;;4.20;89.60;;;;;;4988048;28;19926;-74
2021/12/11 05:09:39;;;;;;;;;;;4.20;89.70;;;;;;4980924;28;19934;-74
2021/12/11 05:14:41;;;;;;;;;;;4.30;89.70;;;;;;4959072;28;19926;-73
2021/12/11 05:17:09;;;;;;;;;;;4.30;89.60;;;;;;4976626;28;19933;-74
2021/12/11 05:19:37;;;;;;;;;;;4.30;89.60;;;;;;4959353;28;20273;-74
2021/12/11 05:22:05;;;;;;;;;;;4.30;89.60;;;;;;4958327;28;19927;-74
2021/12/11 05:24:34;;;;;;;;;;;4.20;89.50;;;;;;4976123;28;19933;-74
2021/12/11 05:27:01;;;;;;;;;;;4.20;89.50;;;;;;4976063;28;19926;-75
2021/12/11 05:29:29;;;;;;;;;;;4.30;89.50;;;;;;4959302;28;20315;-73
2021/12/11 05:31:57;;;;;;;;;;;4.30;89.20;;;;;;4976273;28;19933;-74
2021/12/11 05:34:25;;;;;;;;;;;4.30;89.10;;;;;;4975929;28;19926;-75
2021/12/11 05:36:52;;;;;;;;;;;4.40;88.90;;;;;;4959008;28;19926;-74
2021/12/11 05:39:20;;;;;;;;;;;4.50;88.80;;;;;;4975953;28;19926;-74
2021/12/11 05:41:48;;;;;;;;;;;4.50;88.60;;;;;;4975757;28;19930;-74
2021/12/11 05:44:17;;;;;;;;;;;4.60;88.50;;;;;;4975500;28;19926;-75
2021/12/11 05:46:44;;;;;;;;;;;4.60;88.40;;;;;;4975971;28;19937;-75
2021/12/11 05:49:13;;;;;;;;;;;4.60;88.40;;;;;;4975838;28;19926;-75
2021/12/11 05:51:41;;;;;;;;;;;4.60;88.40;;;;;;4974902;28;19933;-75
2021/12/11 05:54:11;;;;;;;;;;;4.70;88.40;;;;;;4981778;28;19926;-74
2021/12/11 05:56:40;;;;;;;;;;;4.70;88.30;;;;;;4981222;28;19926;-75
2021/12/11 05:59:09;;;;;;;;;;;4.80;88.20;;;;;;4975741;28;19934;-73
2021/12/11 06:01:42;;;;;;;;;;;4.80;88.00;;;;;;4975782;28;19930;-75
2021/12/11 06:04:11;;;;;;;;;;;4.80;88.00;;;;;;4975564;28;19926;-73
2021/12/11 06:06:39;;;;;;;;;;;4.80;88.00;;;;;;4975502;28;20402;-74
2021/12/11 06:09:08;;;;;;;;;;;4.80;88.00;;;;;;4986841;28;19925;-74
2021/12/11 06:11:36;;;;;;;;;;;4.80;87.90;;;;;;4995107;28;19926;-73
2021/12/11 06:14:04;;;;;;;;;;;4.90;87.80;;;;;;4994847;28;19933;-74
2021/12/11 06:16:32;;;;;;;;;;;4.90;87.70;;;;;;4994835;28;19933;-74
2021/12/11 06:19:03;;;;;;;;;;;4.90;87.70;;;;;;4974921;28;19933;-75
2021/12/11 06:21:31;;;;;;;;;;;5.00;87.70;;;;;;4993947;28;19925;-74
2021/12/11 06:23:59;;;;;;;;;;;5.00;87.70;;;;;;4976458;28;19926;-74
2021/12/11 06:26:27;;;;;;;;;;;5.00;87.50;;;;;;4994566;28;19926;-74
2021/12/11 06:28:54;;;;;;;;;;;5.10;87.60;;;;;;4994464;28;19926;-74
2021/12/11 06:31:22;;;;;;;;;;;5.10;87.60;;;;;;4977305;28;19925;-74
2021/12/11 06:33:52;;;;;;;;;;;5.10;87.50;;;;;;4970792;28;19926;-73
2021/12/11 06:36:22;;;;;;;;;;;5.20;87.50;;;;;;4957870;28;19926;-74
2021/12/11 06:38:51;;;;;;;;;;;5.20;87.60;;;;;;4974749;28;19930;-75
2021/12/11 06:41:23;;;;;;;;;;;5.20;87.70;;;;;;4974983;28;19933;-75
2021/12/11 06:43:51;;;;;;;;;;;5.20;87.60;;;;;;4974971;28;19926;-75
2021/12/11 06:46:18;;;;;;;;;;;5.20;87.60;;;;;;4974741;28;19930;-75
2021/12/11 06:48:46;;;;;;;;;;;5.30;87.50;;;;;;4974698;28;20270;-75
2021/12/11 06:51:14;;;;;;;;;;;5.30;87.60;;;;;;4974723;28;19945;-75
2021/12/11 06:53:52;;;;;;;;;;;5.30;87.70;;;;;;4956893;28;19926;-75
2021/12/11 06:56:20;;;;;;;;;;;5.30;87.90;;;;;;4974786;28;20284;-75
2021/12/11 06:58:48;;;;;;;;;;;5.30;88.00;;;;;;4974483;28;20009;-76
2021/12/11 07:01:16;;;;;;;;;;;5.20;88.20;;;;;;4974089;28;20371;-75
2021/12/11 07:03:44;;;;;;;;;;;5.20;88.30;;;;;;4973391;28;19961;-76
2021/12/11 07:06:13;;;;;;;;;;;5.10;88.40;;;;;;4978060;28;20524;-75
2021/12/11 07:08:40;;;;;;;;;;;5.00;88.60;;;;;;4992314;28;19926;-76
2021/12/11 07:11:09;;;;;;;;;;;5.00;88.70;;;;;;4993550;28;20043;-76
2021/12/11 07:13:37;;;;;;;;;;;4.90;88.90;;;;;;4993728;28;20307;-76
2021/12/11 07:16:06;;;;;;;;;;;4.80;89.00;;;;;;4993667;28;19926;-75
2021/12/11 07:18:34;;;;;;;;;;;4.80;89.20;;;;;;4993223;28;20425;-75
2021/12/11 07:21:02;;;;;;;;;;;4.70;89.30;;;;;;4994095;28;19926;-75
2021/12/11 07:23:29;;;;;;;;;;;4.60;89.50;;;;;;4993568;28;19926;-75
2021/12/11 07:26:05;;;;;;;;;;;4.60;89.60;;;;;;4976198;28;19926;-75
2021/12/11 07:28:33;;;;;;;;;;;4.50;89.70;;;;;;4993522;28;19926;-75
2021/12/11 07:31:00;;;;;;;;;;;4.50;89.80;;;;;;4992662;28;19933;-75
2021/12/11 07:33:28;;;;;;;;;;;4.50;89.90;;;;;;4993320;28;19953;-75
2021/12/11 07:36:00;;;;;;;;;;;4.40;90.00;;;;;;4993428;28;19926;-75
2021/12/11 07:38:28;;;;;;;;;;;4.40;90.10;;;;;;4976040;28;19930;-75
2021/12/11 07:40:57;;;;;;;;;;;4.40;90.20;;;;;;4993348;28;19926;-75
2021/12/11 07:43:26;;;;;;;;;;;4.30;90.20;;;;;;4993091;28;19945;-75
2021/12/11 07:45:54;;;;;;;;;;;4.30;90.30;;;;;;4993198;28;19926;-75
2021/12/11 07:48:25;;;;;;;;;;;4.30;90.30;;;;;;4993449;28;19933;-75
2021/12/11 07:50:53;;;;;;;;;;;4.30;90.40;;;;;;4976318;28;19926;-76
2021/12/11 07:53:20;;;;;;;;;;;4.30;90.40;;;;;;4993295;28;19926;-75
2021/12/11 07:55:48;;;;;;;;;;;4.30;90.50;;;;;;4975980;28;19952;-75
2021/12/11 07:58:16;;;;;;;;;;;4.30;90.50;;;;;;4993441;28;19926;-77
2021/12/11 08:00:44;;;;;;;;;;;4.30;90.60;;;;;;4961291;28;19926;-75
2021/12/11 08:03:13;;;;;;;;;;;4.30;90.60;;;;;;4973936;28;19933;-77
2021/12/11 08:05:41;;;;;;;;;;;4.30;90.60;;;;;;4956888;28;19926;-77
2021/12/11 08:08:10;;;;;;;;;;;4.30;90.60;;;;;;4974069;28;19939;-76
2021/12/11 08:10:40;;;;;;;;;;;4.30;90.70;;;;;;4973566;28;19933;-75
2021/12/11 08:13:08;;;;;;;;;;;4.40;90.70;;;;;;4987849;28;19926;-76
2021/12/11 08:15:35;;;;;;;;;;;4.30;90.70;;;;;;4940849;29;19927;-76
2021/12/11 08:18:04;;;;;;;;;;;4.30;90.70;;;;;;4962881;28;19945;-77
2021/12/11 08:20:33;;;;;;;;;;;4.30;90.80;;;;;;4959879;28;19926;-77
2021/12/11 08:23:01;;;;;;;;;;;4.30;90.80;;;;;;4974667;28;19930;-76
2021/12/11 08:25:29;;;;;;;;;;;4.30;90.80;;;;;;4960250;28;19930;-77
2021/12/11 08:27:58;;;;;;;;;;;4.30;90.90;;;;;;4984094;28;20331;-78
2021/12/11 08:30:27;;;;;;;;;;;4.30;90.90;;;;;;4988896;28;19957;-77
2021/12/11 08:32:55;;;;;;;;;;;4.30;91.00;;;;;;4976781;28;19934;-76
2021/12/11 08:35:23;;;;;;;;;;;4.40;91.10;;;;;;4976732;28;19937;-76
2021/12/11 08:37:51;;;;;;;;;;;4.40;91.10;;;;;;4976385;28;20403;-77
2021/12/11 08:40:21;;;;;;;;;;;4.50;91.20;;;;;;4976473;28;19937;-77
2021/12/11 08:42:49;;;;;;;;;;;4.50;91.10;;;;;;4959325;28;19967;-76
2021/12/11 08:45:23;;;;;;;;;;;4.60;91.10;;;;;;4976216;28;19926;-76
2021/12/11 08:47:55;;;;;;;;;;;4.60;91.10;;;;;;4959157;28;19937;-78
2021/12/11 08:50:26;;;;;;;;;;;4.70;91.10;;;;;;4975870;28;19933;-78
2021/12/11 08:52:54;;;;;;;;;;;4.80;91.10;;;;;;4977462;28;19926;-79
2021/12/11 08:55:27;;;;;;;;;;;4.80;91.10;;;;;;4957102;28;19927;-76
2021/12/11 08:57:55;;;;;;;;;;;4.80;91.10;;;;;;4970428;28;19926;-77
2021/12/11 09:00:25;;;;;;;;;;;4.80;91.00;;;;;;4975873;28;20384;-77
2021/12/11 09:02:56;;;;;;;;;;;4.90;91.00;;;;;;4976639;28;19926;-78
2021/12/11 09:05:29;;;;;;;;;;;4.90;91.00;;;;;;4976648;28;19926;-76
2021/12/11 09:07:59;;;;;;;;;;;4.90;91.00;;;;;;4978488;28;19933;-76
2021/12/11 09:10:31;;;;;;;;;;;4.90;91.00;;;;;;4978613;28;19953;-78
2021/12/11 09:13:11;;;;;;;;;;;4.90;91.00;;;;;;4962033;28;19933;-78
2021/12/11 09:15:43;;;;;;;;;;;4.90;91.00;;;;;;4996016;28;19931;-76
2021/12/11 09:18:14;;;;;;;;;;;4.90;91.10;;;;;;4970916;28;20398;-77
2021/12/11 09:20:47;;;;;;;;;;;4.90;91.10;;;;;;4988646;28;20423;-76
2021/12/11 09:23:42;;;;;;;;;;;5.00;91.10;;;;;;4969021;28;19934;-77
2021/12/11 09:26:14;;;;;;;;;;;5.00;91.00;;;;;;4956509;28;19941;-77
2021/12/11 09:29:06;;;;;;;;;;;5.10;91.00;;;;;;4957998;28;19933;-77
2021/12/11 09:31:33;;;;;;;;;;;5.10;91.00;;;;;;4956768;29;19926;-77
2021/12/11 09:34:03;;;;;;;;;;;5.10;90.90;;;;;;4940018;29;19926;-76
2021/12/11 09:36:33;;;;;;;;;;;5.10;90.90;;;;;;4939609;29;19934;-76
2021/12/11 09:39:07;;;;;;;;;;;5.10;90.70;;;;;;4956564;29;19926;-75
2021/12/11 09:41:36;;;;;;;;;;;5.20;90.60;;;;;;4956018;28;19926;-75
2021/12/11 09:44:11;;;;;;;;;;;5.20;90.50;;;;;;4964283;28;19933;-77
2021/12/11 09:47:00;;;;;;;;;;;5.20;90.30;;;;;;4990672;28;20299;-76
2021/12/11 09:49:31;;;;;;;;;;;5.20;90.10;;;;;;4958636;28;19926;-77
2021/12/11 09:52:01;;;;;;;;;;;5.20;90.10;;;;;;4958613;28;19926;-75
2021/12/11 09:54:30;;;;;;;;;;;5.20;90.10;;;;;;4990295;28;19926;-75
2021/12/11 09:57:05;;;;;;;;;;;5.20;90.10;;;;;;4975477;28;19929;-76
2021/12/11 09:59:36;;;;;;;;;;;5.30;90.20;;;;;;4974958;28;19926;-77
2021/12/11 10:02:07;;;;;;;;;;;5.30;90.20;;;;;;4972750;28;19953;-76
2021/12/11 10:04:38;;;;;;;;;;;5.30;90.20;;;;;;4971830;28;20357;-78
2021/12/11 10:09:40;;;;;;;;;;;5.30;90.30;;;;;;4976762;28;19934;-77
2021/12/11 10:12:08;;;;;;;;;;;5.30;90.30;;;;;;4974531;28;20009;-77
2021/12/11 10:14:41;;;;;;;;;;;5.30;90.30;;;;;;4968061;28;19933;-77
2021/12/11 10:17:13;;;;;;;;;;;5.30;90.40;;;;;;4939600;28;20277;-77
2021/12/11 10:19:42;;;;;;;;;;;5.30;90.40;;;;;;4955894;28;19926;-76
2021/12/11 10:22:12;;;;;;;;;;;5.30;90.50;;;;;;4954152;29;19926;-77
2021/12/11 10:24:41;;;;;;;;;;;5.40;90.50;;;;;;4950456;28;20505;-75
2021/12/11 10:27:10;;;;;;;;;;;5.50;90.30;;;;;;4975874;28;19927;-75
2021/12/11 10:29:42;;;;;;;;;;;5.50;90.20;;;;;;4951364;28;20271;-75
2021/12/11 10:32:12;;;;;;;;;;;5.60;90.10;;;;;;4981759;28;20472;-76
2021/12/11 10:34:42;;;;;;;;;;;5.60;89.60;;;;;;4993266;28;19929;-76
2021/12/11 10:37:13;;;;;;;;;;;5.60;89.60;;;;;;4979899;28;19930;-76
2021/12/11 10:39:42;;;;;;;;;;;5.60;89.60;;;;;;4973902;28;19937;-76
2021/12/11 10:42:10;;;;;;;;;;;5.70;89.70;;;;;;4977284;28;19949;-76
2021/12/11 10:44:42;;;;;;;;;;;5.70;89.60;;;;;;4983189;28;19930;-77
2021/12/11 10:47:12;;;;;;;;;;;5.70;89.50;;;;;;4957612;28;20387;-77
2021/12/11 10:49:49;;;;;;;;;;;5.70;89.60;;;;;;4957498;28;19926;-78
2021/12/11 10:52:22;;;;;;;;;;;5.80;89.60;;;;;;4974654;28;19933;-77
2021/12/11 10:54:50;;;;;;;;;;;5.80;89.60;;;;;;4973396;28;19931;-77
2021/12/11 10:57:19;;;;;;;;;;;5.90;89.60;;;;;;4974926;28;19926;-78
2021/12/11 10:59:48;;;;;;;;;;;5.90;89.60;;;;;;4975650;28;19926;-77
2021/12/11 11:02:19;;;;;;;;;;;6.00;89.50;;;;;;4975378;28;19945;-79
2021/12/11 11:04:49;;;;;;;;;;;6.10;89.50;;;;;;4957207;28;19933;-79
2021/12/11 11:07:17;;;;;;;;;;;6.10;89.40;;;;;;4985970;28;19933;-78
2021/12/11 11:09:47;;;;;;;;;;;6.20;89.30;;;;;;4977008;28;19926;-81
2021/12/11 11:12:16;;;;;;;;;;;6.20;89.20;;;;;;4958834;28;19933;-80
2021/12/11 11:14:45;;;;;;;;;;;6.10;89.10;;;;;;4975486;28;19933;-78
2021/12/11 11:17:18;;;;;;;;;;;6.10;89.20;;;;;;4975746;28;19926;-78
2021/12/11 11:19:46;;;;;;;;;;;6.10;89.10;;;;;;4976782;28;19926;-80
2021/12/11 11:22:16;;;;;;;;;;;6.10;89.20;;;;;;4960336;28;19933;-79
2021/12/11 11:24:46;;;;;;;;;;;6.20;89.20;;;;;;4972016;28;19926;-79
2021/12/11 11:27:13;;;;;;;;;;;6.10;89.20;;;;;;4990179;28;19926;-80
2021/12/11 11:29:42;;;;;;;;;;;6.20;89.20;;;;;;4977331;28;19949;-78
2021/12/11 11:32:13;;;;;;;;;;;6.20;89.20;;;;;;4987224;28;19933;-76
2021/12/11 11:34:42;;;;;;;;;;;6.20;89.10;;;;;;4981218;28;19926;-75
2021/12/11 11:37:11;;;;;;;;;;;6.20;89.00;;;;;;4977353;28;20407;-75
2021/12/11 11:39:39;;;;;;;;;;;6.20;89.00;;;;;;4988059;28;19926;-73
2021/12/11 11:42:11;;;;;;;;;;;6.30;89.00;;;;;;4980122;28;20231;-73
2021/12/11 11:44:40;;;;;;;;;;;6.30;89.10;;;;;;4981387;28;20293;-74
2021/12/11 11:47:08;;;;;;;;;;;6.30;89.10;;;;;;4983397;28;19926;-74
2021/12/11 11:49:35;;;;;;;;;;;6.30;89.30;;;;;;4979031;28;19927;-78
2021/12/11 11:52:07;;;;;;;;;;;6.30;89.30;;;;;;4986642;28;20319;-76
2021/12/11 11:54:36;;;;;;;;;;;6.30;89.40;;;;;;4977640;28;19934;-77
2021/12/11 11:57:10;;;;;;;;;;;6.30;89.50;;;;;;4963844;28;19933;-85
2021/12/11 11:59:39;;;;;;;;;;;6.30;89.60;;;;;;4967743;28;20296;-80
2021/12/11 12:02:09;;;;;;;;;;;6.30;89.70;;;;;;4951995;28;19933;-74
2021/12/11 12:04:38;;;;;;;;;;;6.30;89.80;;;;;;4975928;28;19929;-75
2021/12/11 12:07:06;;;;;;;;;;;6.30;89.90;;;;;;4992131;28;19926;-75
2021/12/11 12:09:37;;;;;;;;;;;6.30;90.00;;;;;;4974522;28;19930;-75
2021/12/11 12:12:06;;;;;;;;;;;6.30;90.10;;;;;;4992802;28;20010;-74
2021/12/11 12:14:34;;;;;;;;;;;6.30;90.20;;;;;;4975103;28;19925;-75
2021/12/11 12:17:02;;;;;;;;;;;6.30;90.20;;;;;;4975955;28;19937;-75
2021/12/11 12:19:30;;;;;;;;;;;6.30;90.30;;;;;;4993160;28;19926;-74
2021/12/11 12:21:59;;;;;;;;;;;6.30;90.40;;;;;;4992362;28;19926;-75
2021/12/11 12:24:27;;;;;;;;;;;6.30;90.40;;;;;;4975342;28;19926;-74
2021/12/11 12:26:55;;;;;;;;;;;6.30;90.50;;;;;;4993412;28;20398;-74
2021/12/11 12:29:23;;;;;;;;;;;6.30;90.60;;;;;;4993234;28;19932;-74
2021/12/11 12:31:52;;;;;;;;;;;6.30;90.70;;;;;;4993176;28;19941;-75
2021/12/11 12:34:21;;;;;;;;;;;6.30;90.70;;;;;;4992761;28;19926;-74
2021/12/11 12:36:49;;;;;;;;;;;6.30;90.80;;;;;;4993337;28;19926;-73
2021/12/11 12:39:19;;;;;;;;;;;6.30;90.80;;;;;;4993158;28;19949;-75
2021/12/11 12:41:52;;;;;;;;;;;6.40;90.90;;;;;;4993024;28;19926;-74
2021/12/11 12:44:26;;;;;;;;;;;6.50;90.80;;;;;;4992656;28;20299;-75
2021/12/11 12:47:02;;;;;;;;;;;6.50;90.80;;;;;;4992980;28;19926;-74
2021/12/11 12:49:31;;;;;;;;;;;6.60;90.70;;;;;;4992797;28;19925;-73
2021/12/11 12:52:03;;;;;;;;;;;6.50;90.70;;;;;;4992576;28;19926;-72
2021/12/11 12:54:31;;;;;;;;;;;6.60;90.80;;;;;;4992656;28;19926;-73
2021/12/11 12:57:07;;;;;;;;;;;6.60;90.80;;;;;;4993004;28;19926;-73
2021/12/11 12:59:36;;;;;;;;;;;6.60;90.80;;;;;;4995081;28;20406;-72
2021/12/11 13:02:09;;;;;;;;;;;6.60;90.80;;;;;;4996181;28;19926;-72
2021/12/11 13:04:40;;;;;;;;;;;6.60;90.80;;;;;;4996509;28;19933;-73
2021/12/11 13:07:09;;;;;;;;;;;6.60;90.70;;;;;;4996138;28;19926;-73
2021/12/11 13:09:41;;;;;;;;;;;6.50;90.80;;;;;;4978548;28;19925;-73
2021/12/11 13:12:15;;;;;;;;;;;6.50;90.90;;;;;;4996013;28;19933;-73
2021/12/11 13:14:44;;;;;;;;;;;6.50;91.00;;;;;;4962560;28;19933;-74
2021/12/11 13:17:18;;;;;;;;;;;6.50;91.00;;;;;;4995710;28;20379;-73
2021/12/11 13:19:47;;;;;;;;;;;6.50;91.10;;;;;;4995224;28;19926;-72
2021/12/11 13:22:17;;;;;;;;;;;6.50;91.10;;;;;;4995793;28;19926;-72
2021/12/11 13:24:49;;;;;;;;;;;6.50;91.10;;;;;;4995693;28;20387;-72
2021/12/11 13:27:18;;;;;;;;;;;6.50;91.30;;;;;;4995861;28;19933;-74
2021/12/11 13:29:48;;;;;;;;;;;6.40;91.30;;;;;;4995570;28;19926;-73
2021/12/11 13:32:17;;;;;;;;;;;6.40;91.40;;;;;;4977680;28;19937;-73
2021/12/11 13:34:47;;;;;;;;;;;6.40;91.40;;;;;;4995440;28;19926;-73
2021/12/11 13:37:16;;;;;;;;;;;6.40;91.50;;;;;;4994819;28;20414;-73
2021/12/11 13:39:44;;;;;;;;;;;6.40;91.50;;;;;;4977818;28;19926;-73
2021/12/11 13:42:15;;;;;;;;;;;6.50;91.60;;;;;;4995346;28;19926;-73
2021/12/11 13:44:43;;;;;;;;;;;6.50;91.60;;;;;;4994710;28;19932;-74
2021/12/11 13:47:14;;;;;;;;;;;6.50;91.60;;;;;;4977391;28;19926;-74
2021/12/11 13:49:41;;;;;;;;;;;6.50;91.60;;;;;;4994674;28;20395;-74
2021/12/11 13:52:11;;;;;;;;;;;6.50;91.60;;;;;;4995368;28;20034;-73
2021/12/11 13:54:39;;;;;;;;;;;6.60;91.60;;;;;;4995568;28;19926;-73
2021/12/11 13:57:09;;;;;;;;;;;6.60;91.60;;;;;;4995337;28;19933;-74
2021/12/11 13:59:37;;;;;;;;;;;6.60;91.60;;;;;;4995402;28;19933;-73
2021/12/11 14:02:05;;;;;;;;;;;6.60;91.60;;;;;;4977754;28;20367;-73
2021/12/11 14:04:34;;;;;;;;;;;6.70;91.70;;;;;;4977446;28;19926;-73
2021/12/11 14:07:14;;;;;;;;;;;6.60;91.70;;;;;;4977984;28;19925;-73
2021/12/11 14:10:02;;;;;;;;;;;6.60;91.70;;;;;;4976986;28;20402;-74
2021/12/11 14:12:30;;;;;;;;;;;6.60;91.80;;;;;;4995166;28;19925;-74
2021/12/11 14:14:59;;;;;;;;;;;6.60;91.90;;;;;;4994303;28;20310;-74
2021/12/11 14:17:27;;;;;;;;;;;6.60;92.00;;;;;;4977455;28;19933;-73
2021/12/11 14:19:55;;;;;;;;;;;6.50;92.00;;;;;;4977562;28;19933;-73
2021/12/11 14:22:26;;;;;;;;;;;6.60;92.20;;;;;;4977406;28;19925;-73
2021/12/11 14:24:53;;;;;;;;;;;6.50;92.30;;;;;;4977106;28;19930;-74
2021/12/11 14:27:21;;;;;;;;;;;6.50;92.30;;;;;;4994525;28;20296;-74
2021/12/11 14:29:53;;;;;;;;;;;6.50;92.40;;;;;;4993956;28;19949;-73
2021/12/11 14:32:24;;;;;;;;;;;6.50;92.50;;;;;;4977455;28;19941;-74
2021/12/11 14:34:51;;;;;;;;;;;6.60;92.60;;;;;;4958934;28;19926;-74
2021/12/11 14:37:19;;;;;;;;;;;6.60;92.70;;;;;;4994360;28;19948;-73
2021/12/11 14:39:47;;;;;;;;;;;6.60;92.70;;;;;;4993480;28;19925;-73
2021/12/11 14:42:17;;;;;;;;;;;6.60;92.80;;;;;;4993789;28;19926;-73
2021/12/11 14:44:45;;;;;;;;;;;6.60;92.80;;;;;;4994658;28;19930;-73
2021/12/11 14:47:13;;;;;;;;;;;6.70;92.90;;;;;;4994359;28;19926;-73
2021/12/11 14:49:43;;;;;;;;;;;6.70;92.90;;;;;;4994150;28;19933;-72
2021/12/11 14:52:14;;;;;;;;;;;6.70;93.00;;;;;;4994237;28;19933;-73
2021/12/11 14:54:42;;;;;;;;;;;6.70;93.00;;;;;;4994149;28;19926;-72
2021/12/11 14:57:12;;;;;;;;;;;6.80;93.00;;;;;;4994131;28;19933;-72
2021/12/11 14:59:45;;;;;;;;;;;6.80;93.00;;;;;;4994142;28;19932;-72
2021/12/11 15:02:16;;;;;;;;;;;6.80;93.00;;;;;;4976781;28;19933;-72
2021/12/11 15:04:48;;;;;;;;;;;6.80;93.00;;;;;;4993760;28;19945;-72
2021/12/11 15:07:17;;;;;;;;;;;6.80;93.10;;;;;;4994026;28;19925;-73